Terminal Aerodrome Forecast
Issued by NWS

Home | Current Version | Previous Version | Text Only | Print | Product List | Glossary On
Versions: 1 2 3 4 5 6 7 8 9 10 11 12 13 14 15 16 17 18 19
554
FTUS41 KCAR 241236 AAA
TAFFVE
TAF AMD
KFVE 241236Z 2413/2512 28005KT P6SM SCT007 BKN015
      TEMPO 2413/2415 BKN007
     FM241600 32007KT P6SM OVC020
     FM250000 35007KT P6SM OVC007
     FM250500 04005KT 3SM -FZRAPL OVC008
     FM251000 09005KT 2SM -FZRA OVC005=

USA.gov is the U.S. government's official web portal to all federal, state and local government web resources and services.